createdAt,value
2023-02-01T00:00:37.829Z,2.89
2023-02-01T00:03:06.560Z,2.85
2023-02-01T00:05:33.872Z,2.81
2023-02-01T00:08:01.196Z,2.67
2023-02-01T00:10:28.508Z,2.58
2023-02-01T00:12:55.961Z,2.65
2023-02-01T00:15:24.133Z,2.52
2023-02-01T00:17:55.708Z,2.51
2023-02-01T00:20:23.173Z,2.57
2023-02-01T00:22:50.623Z,2.46
2023-02-01T00:25:17.999Z,2.43
2023-02-01T00:27:49.933Z,2.46
2023-02-01T00:30:18.704Z,2.50
2023-02-01T00:32:47.331Z,2.62
2023-02-01T00:35:14.735Z,2.59
2023-02-01T00:37:42.035Z,2.58
2023-02-01T00:40:09.859Z,2.53
2023-02-01T00:42:37.335Z,2.49
2023-02-01T00:45:05.011Z,2.46
2023-02-01T00:47:33.352Z,2.53
2023-02-01T00:50:00.682Z,2.55
2023-02-01T00:52:29.952Z,2.51
2023-02-01T00:54:57.301Z,2.42
2023-02-01T00:57:24.654Z,2.34
2023-02-01T00:59:51.935Z,2.35
2023-02-01T01:02:19.432Z,2.40
2023-02-01T01:04:47.908Z,2.40
2023-02-01T01:07:15.596Z,2.42
2023-02-01T01:09:42.910Z,2.42
2023-02-01T01:12:12.011Z,2.42
2023-02-01T01:14:39.267Z,2.43
2023-02-01T01:17:06.635Z,2.36
2023-02-01T01:19:33.920Z,2.34
2023-02-01T01:22:01.228Z,2.36
2023-02-01T01:24:28.548Z,2.29
2023-02-01T01:26:55.921Z,2.29
2023-02-01T01:29:23.207Z,2.34
2023-02-01T01:31:50.635Z,2.32
2023-02-01T01:34:17.963Z,2.33
2023-02-01T01:36:45.297Z,2.32
2023-02-01T01:39:12.820Z,2.27
2023-02-01T01:41:40.321Z,2.27
2023-02-01T01:44:55.995Z,2.30
2023-02-01T01:47:23.635Z,2.24
2023-02-01T01:49:51.788Z,2.30
2023-02-01T01:52:20.115Z,2.28
2023-02-01T01:54:52.369Z,2.35
2023-02-01T01:57:29.823Z,2.33
2023-02-01T02:00:10.691Z,2.31
2023-02-01T02:02:48.643Z,2.20
2023-02-01T02:05:18.231Z,2.26
2023-02-01T02:07:49.877Z,2.36
2023-02-01T02:10:18.254Z,2.32
2023-02-01T02:12:49.026Z,2.31
2023-02-01T02:15:18.079Z,2.34
2023-02-01T02:17:59.158Z,2.22
2023-02-01T02:21:04.347Z,2.05
2023-02-01T02:24:01.188Z,2.04
2023-02-01T02:26:40.768Z,1.98
2023-02-01T02:29:40.791Z,2.02
2023-02-01T02:32:20.262Z,2.06
2023-02-01T02:34:57.022Z,2.03
2023-02-01T02:37:36.312Z,2.03
2023-02-01T02:40:21.977Z,1.93
2023-02-01T02:43:35.252Z,2.03
2023-02-01T02:46:46.127Z,2.11
2023-02-01T02:49:35.243Z,1.88
2023-02-01T02:52:42.192Z,1.95
2023-02-01T02:55:11.203Z,2.00
2023-02-01T02:58:02.445Z,1.98
2023-02-01T03:00:52.132Z,1.94
2023-02-01T03:03:38.360Z,1.93
2023-02-01T03:06:15.850Z,1.92
2023-02-01T03:08:46.333Z,1.87
2023-02-01T03:11:15.985Z,1.99
2023-02-01T03:13:54.055Z,2.03
2023-02-01T03:16:34.449Z,1.79
2023-02-01T03:19:09.327Z,1.74
2023-02-01T03:21:40.708Z,1.60
2023-02-01T03:24:34.477Z,1.54
2023-02-01T03:27:24.245Z,1.51
2023-02-01T03:30:02.206Z,1.53
2023-02-01T03:32:30.395Z,1.54
2023-02-01T03:34:57.787Z,1.71
2023-02-01T03:37:28.879Z,1.66
2023-02-01T03:40:02.198Z,1.71
2023-02-01T03:42:38.173Z,1.76
2023-02-01T03:45:12.145Z,1.76
2023-02-01T03:47:44.378Z,1.54
2023-02-01T03:50:18.436Z,1.44
2023-02-01T03:53:02.660Z,1.53
2023-02-01T03:55:32.909Z,1.53
2023-02-01T03:58:08.891Z,1.57
2023-02-01T04:00:37.173Z,1.61
2023-02-01T04:03:05.940Z,1.65
2023-02-01T04:05:34.025Z,1.71
2023-02-01T04:08:06.987Z,1.68
2023-02-01T04:10:34.489Z,1.79
2023-02-01T04:13:01.818Z,1.80
2023-02-01T04:15:29.153Z,1.77
2023-02-01T04:17:56.504Z,1.75
2023-02-01T04:20:24.669Z,1.71
2023-02-01T04:22:52.128Z,1.70
2023-02-01T04:25:19.530Z,1.73
2023-02-01T04:27:47.918Z,1.73
2023-02-01T04:30:15.912Z,1.77
2023-02-01T04:32:43.453Z,1.70
2023-02-01T04:35:10.980Z,1.61
2023-02-01T04:37:38.248Z,1.73
2023-02-01T04:40:06.252Z,1.74
2023-02-01T04:42:33.544Z,1.75
2023-02-01T04:45:00.877Z,1.70
2023-02-01T04:47:28.284Z,1.75
2023-02-01T04:49:56.092Z,1.68
2023-02-01T04:52:23.554Z,1.64
2023-02-01T04:54:51.081Z,1.69
2023-02-01T04:57:18.522Z,1.71
2023-02-01T04:59:46.092Z,1.77
2023-02-01T05:02:13.837Z,1.76
2023-02-01T05:04:41.239Z,1.57
2023-02-01T05:07:08.827Z,1.42
2023-02-01T05:09:36.700Z,1.49
2023-02-01T05:12:23.288Z,1.53
2023-02-01T05:14:50.787Z,1.45
2023-02-01T05:17:18.365Z,1.39
2023-02-01T05:19:45.725Z,1.34
2023-02-01T05:22:13.046Z,1.38
2023-02-01T05:24:40.590Z,1.47
2023-02-01T05:27:08.100Z,1.53
2023-02-01T05:29:35.493Z,1.42
2023-02-01T05:32:19.347Z,1.46
2023-02-01T05:34:48.865Z,1.40
2023-02-01T05:37:16.288Z,1.52
2023-02-01T05:39:43.840Z,1.51
2023-02-01T05:42:11.638Z,1.38
2023-02-01T05:44:39.053Z,1.15
2023-02-01T05:47:06.623Z,1.16
2023-02-01T05:49:34.044Z,1.08
2023-02-01T05:52:01.410Z,1.10
2023-02-01T05:54:29.150Z,1.08
2023-02-01T05:56:56.516Z,1.08
2023-02-01T05:59:24.290Z,1.08
2023-02-01T06:01:52.036Z,1.08
2023-02-01T06:04:19.612Z,1.11
2023-02-01T06:06:46.997Z,1.11
2023-02-01T06:09:14.340Z,1.22
2023-02-01T06:11:42.417Z,1.22
2023-02-01T06:14:09.811Z,1.20
2023-02-01T06:16:37.312Z,1.45
2023-02-01T06:19:04.734Z,1.32
2023-02-01T06:21:32.194Z,1.21
2023-02-01T06:24:00.049Z,1.12
2023-02-01T06:26:29.598Z,1.13
2023-02-01T06:28:57.564Z,1.15
2023-02-01T06:31:26.348Z,1.19
2023-02-01T06:33:54.620Z,1.09
2023-02-01T06:36:22.344Z,1.03
2023-02-01T06:38:50.139Z,0.94
2023-02-01T06:41:17.989Z,0.76
2023-02-01T06:43:47.309Z,0.81
2023-02-01T06:46:14.965Z,1.06
2023-02-01T06:48:42.810Z,1.15
2023-02-01T06:51:39.764Z,1.20
2023-02-01T06:54:07.220Z,1.26
2023-02-01T06:56:34.697Z,1.26
2023-02-01T06:59:05.504Z,1.34
2023-02-01T07:01:33.531Z,1.41
2023-02-01T07:04:01.023Z,1.48
2023-02-01T07:06:28.518Z,1.51
2023-02-01T07:08:56.924Z,1.64
2023-02-01T07:11:24.776Z,1.73
2023-02-01T07:13:53.393Z,1.80
2023-02-01T07:16:21.856Z,2.08
2023-02-01T07:18:51.828Z,2.37
2023-02-01T07:21:20.239Z,2.42
2023-02-01T07:23:47.665Z,2.46
2023-02-01T07:26:17.453Z,2.63
2023-02-01T07:28:45.062Z,2.84
2023-02-01T07:31:16.606Z,3.08
2023-02-01T07:33:44.255Z,3.76
2023-02-01T07:36:13.836Z,3.88
2023-02-01T07:38:41.772Z,3.89
2023-02-01T07:41:09.936Z,3.90
2023-02-01T07:43:37.643Z,4.12
2023-02-01T07:46:06.406Z,4.54
2023-02-01T07:48:37.397Z,4.79
2023-02-01T07:51:13.256Z,4.84
2023-02-01T07:53:41.710Z,5.09
2023-02-01T07:56:19.867Z,5.41
2023-02-01T07:58:52.503Z,5.87
2023-02-01T08:01:25.389Z,5.63
2023-02-01T08:04:00.051Z,5.57
2023-02-01T08:06:29.637Z,5.24
2023-02-01T08:08:57.079Z,5.17
2023-02-01T08:11:25.999Z,5.55
2023-02-01T08:13:54.213Z,5.45
2023-02-01T08:16:22.594Z,5.78
2023-02-01T08:18:50.483Z,5.61
2023-02-01T08:21:24.152Z,6.17
2023-02-01T08:23:52.721Z,6.89
2023-02-01T08:26:23.173Z,7.37
2023-02-01T08:28:54.360Z,7.85
2023-02-01T08:31:24.111Z,8.03
2023-02-01T08:33:54.779Z,7.85
2023-02-01T08:36:23.979Z,8.28
2023-02-01T08:38:51.898Z,8.67
2023-02-01T08:41:22.876Z,8.69
2023-02-01T08:43:50.583Z,8.05
2023-02-01T08:46:18.662Z,7.82
2023-02-01T08:48:48.126Z,7.09
2023-02-01T08:51:18.790Z,7.08
2023-02-01T08:53:46.535Z,6.56
2023-02-01T08:56:16.749Z,7.12
2023-02-01T08:58:45.399Z,6.61
2023-02-01T09:01:15.188Z,6.84
2023-02-01T09:03:42.860Z,7.04
2023-02-01T09:06:12.656Z,7.82
2023-02-01T09:08:41.255Z,7.73
2023-02-01T09:11:12.463Z,7.99
2023-02-01T09:13:39.917Z,8.93
2023-02-01T09:16:07.865Z,9.82
2023-02-01T09:18:35.817Z,10.49
2023-02-01T09:21:09.533Z,11.31
2023-02-01T09:23:37.598Z,12.22
2023-02-01T09:26:06.196Z,12.42
2023-02-01T09:28:34.005Z,13.51
2023-02-01T09:31:02.697Z,14.65
2023-02-01T09:33:30.754Z,14.15
2023-02-01T09:36:00.000Z,13.89
2023-02-01T09:38:28.471Z,13.43
2023-02-01T09:40:57.103Z,14.44
2023-02-01T09:43:48.376Z,13.26
2023-02-01T09:46:22.237Z,14.11
2023-02-01T09:48:53.320Z,14.11
2023-02-01T09:51:26.544Z,14.72
2023-02-01T09:54:05.381Z,13.75
2023-02-01T09:56:43.330Z,13.31
2023-02-01T09:59:33.524Z,12.54
2023-02-01T10:02:05.463Z,12.30
2023-02-01T10:04:34.466Z,12.09
2023-02-01T10:07:12.781Z,12.75
2023-02-01T10:10:00.669Z,11.88
2023-02-01T10:12:43.411Z,11.78
2023-02-01T10:15:25.728Z,11.22
2023-02-01T10:18:28.452Z,10.63
2023-02-01T10:21:18.536Z,12.21
2023-02-01T10:24:23.355Z,11.14
2023-02-01T10:27:12.698Z,11.42
2023-02-01T10:29:47.046Z,11.28
2023-02-01T10:32:18.144Z,11.81
2023-02-01T10:34:50.822Z,12.19
2023-02-01T10:37:26.064Z,11.61
2023-02-01T10:39:59.026Z,11.10
2023-02-01T10:42:48.151Z,11.51
2023-02-01T10:45:20.198Z,10.92
2023-02-01T10:47:48.400Z,10.58
2023-02-01T10:50:37.300Z,10.33
2023-02-01T10:53:07.848Z,10.28
2023-02-01T10:55:47.092Z,10.91
2023-02-01T10:58:30.376Z,10.06
2023-02-01T11:01:03.916Z,10.19
2023-02-01T11:03:33.712Z,10.26
2023-02-01T11:06:03.776Z,10.26
2023-02-01T11:08:31.575Z,10.30
2023-02-01T11:11:02.470Z,10.25
2023-02-01T11:13:32.932Z,11.21
2023-02-01T11:16:03.900Z,10.91
2023-02-01T11:18:38.676Z,11.46
2023-02-01T11:21:07.838Z,11.08
2023-02-01T11:23:42.165Z,10.91
2023-02-01T11:26:24.314Z,11.18
2023-02-01T11:28:58.624Z,10.73
2023-02-01T11:31:28.683Z,10.47
2023-02-01T11:34:05.191Z,10.63
2023-02-01T11:36:34.873Z,10.24
2023-02-01T11:39:19.762Z,11.12
2023-02-01T11:42:07.310Z,10.73
2023-02-01T11:44:38.186Z,10.53
2023-02-01T11:47:29.258Z,10.42
2023-02-01T11:50:10.483Z,10.25
2023-02-01T11:53:21.396Z,10.33
2023-02-01T11:56:10.127Z,10.24
2023-02-01T11:59:07.702Z,10.56
2023-02-01T12:01:35.505Z,10.92
2023-02-01T12:04:25.704Z,10.50
2023-02-01T12:06:57.860Z,10.46
2023-02-01T12:09:26.636Z,10.77
2023-02-01T12:12:15.381Z,10.73
2023-02-01T12:15:10.184Z,10.36
2023-02-01T12:17:55.092Z,10.59
2023-02-01T12:20:35.836Z,10.74
2023-02-01T12:23:31.314Z,10.84
2023-02-01T12:26:26.401Z,10.89
2023-02-01T12:29:17.765Z,10.97
2023-02-01T12:31:57.977Z,11.36
2023-02-01T12:34:45.542Z,11.03
2023-02-01T12:37:39.574Z,10.63
2023-02-01T12:40:23.563Z,10.41
2023-02-01T12:43:07.069Z,10.40
2023-02-01T12:45:49.221Z,10.52
2023-02-01T12:48:19.569Z,10.32
2023-02-01T12:50:55.681Z,10.26
2023-02-01T12:53:35.005Z,10.42
2023-02-01T12:56:11.173Z,10.49
2023-02-01T12:58:47.294Z,10.46
2023-02-01T13:01:36.242Z,10.61
2023-02-01T13:04:20.924Z,10.27
2023-02-01T13:07:12.720Z,10.40
2023-02-01T13:09:51.709Z,10.53
2023-02-01T13:12:57.671Z,10.73
2023-02-01T13:16:02.454Z,10.92
2023-02-01T13:18:38.364Z,10.81
2023-02-01T13:21:16.125Z,10.39
2023-02-01T13:23:47.735Z,10.34
2023-02-01T13:26:15.352Z,10.62
2023-02-01T13:28:48.307Z,10.22
2023-02-01T13:31:28.650Z,10.31
2023-02-01T13:34:46.128Z,10.12
2023-02-01T13:38:06.232Z,10.05
2023-02-01T13:40:48.901Z,10.28
2023-02-01T13:43:29.821Z,10.25
2023-02-01T13:46:03.597Z,10.15
2023-02-01T13:48:40.319Z,10.03
2023-02-01T13:51:08.832Z,10.12
2023-02-01T13:53:38.970Z,10.24
2023-02-01T13:56:25.269Z,10.40
2023-02-01T13:58:53.032Z,10.43
2023-02-01T14:01:23.481Z,10.41
2023-02-01T14:04:32.313Z,10.19
2023-02-01T14:06:59.904Z,10.32
2023-02-01T14:09:39.743Z,10.19
2023-02-01T14:12:45.471Z,10.23
2023-02-01T14:16:02.457Z,10.23
2023-02-01T14:18:35.823Z,10.31
2023-02-01T14:21:34.355Z,10.42
2023-02-01T14:24:23.547Z,10.36
2023-02-01T14:26:53.969Z,10.17
2023-02-01T14:29:36.374Z,10.12
2023-02-01T14:32:21.892Z,9.99
2023-02-01T14:34:49.304Z,9.99
2023-02-01T14:37:19.644Z,10.13
2023-02-01T14:39:46.975Z,10.42
2023-02-01T14:42:26.582Z,10.34
2023-02-01T14:44:58.657Z,10.40
2023-02-01T14:47:32.133Z,10.38
2023-02-01T14:50:26.116Z,10.25
2023-02-01T14:53:04.853Z,10.24
2023-02-01T14:55:44.823Z,10.13
2023-02-01T14:58:46.649Z,10.20
2023-02-01T15:01:23.839Z,10.11
2023-02-01T15:03:57.531Z,10.26
2023-02-01T15:06:29.072Z,10.19
2023-02-01T15:09:01.084Z,10.16
2023-02-01T15:11:28.865Z,10.17
2023-02-01T15:13:57.582Z,10.12
2023-02-01T15:16:27.133Z,10.01
2023-02-01T15:19:12.318Z,10.04
2023-02-01T15:21:46.847Z,9.86
2023-02-01T15:24:27.735Z,9.77
2023-02-01T15:26:56.786Z,9.79
2023-02-01T15:29:30.450Z,9.66
2023-02-01T15:31:57.963Z,9.58
2023-02-01T15:34:46.785Z,9.47
2023-02-01T15:37:21.034Z,9.47
2023-02-01T15:40:13.278Z,9.29
2023-02-01T15:42:56.107Z,9.23
2023-02-01T15:45:31.186Z,9.11
2023-02-01T15:47:59.952Z,8.98
2023-02-01T15:50:31.311Z,8.96
2023-02-01T15:52:59.027Z,8.95
2023-02-01T15:55:42.967Z,8.79
2023-02-01T15:58:19.833Z,8.68
2023-02-01T16:00:52.558Z,8.62
2023-02-01T16:03:39.901Z,8.51
2023-02-01T16:06:13.600Z,8.50
2023-02-01T16:08:52.564Z,8.39
2023-02-01T16:11:23.683Z,8.36
2023-02-01T16:13:51.204Z,8.26
2023-02-01T16:16:18.917Z,8.16
2023-02-01T16:18:46.635Z,8.08
2023-02-01T16:21:14.113Z,8.01
2023-02-01T16:23:41.619Z,7.99
2023-02-01T16:26:15.711Z,7.93
2023-02-01T16:28:43.557Z,7.81
2023-02-01T16:31:20.410Z,7.72
2023-02-01T16:33:51.004Z,7.72
2023-02-01T16:36:19.425Z,7.75
2023-02-01T16:38:49.021Z,7.71
2023-02-01T16:41:18.898Z,7.66
2023-02-01T16:43:46.820Z,7.57
2023-02-01T16:46:21.564Z,7.46
2023-02-01T16:49:17.795Z,7.31
2023-02-01T16:51:45.490Z,7.43
2023-02-01T16:54:13.354Z,7.35
2023-02-01T16:56:43.330Z,7.17
2023-02-01T16:59:11.121Z,7.12
2023-02-01T17:01:42.933Z,7.10
2023-02-01T17:04:11.341Z,7.08
2023-02-01T17:06:39.759Z,7.03
2023-02-01T17:09:07.530Z,6.96
2023-02-01T17:11:35.000Z,6.94
2023-02-01T17:14:22.596Z,6.92
2023-02-01T17:16:51.320Z,6.92
2023-02-01T17:19:24.563Z,6.90
2023-02-01T17:21:56.946Z,6.82
2023-02-01T17:24:28.686Z,6.78
2023-02-01T17:27:04.796Z,6.73
2023-02-01T17:29:32.259Z,6.72
2023-02-01T17:32:01.549Z,6.70
2023-02-01T17:34:29.416Z,6.66
2023-02-01T17:36:57.251Z,6.68
2023-02-01T17:39:51.081Z,6.72
2023-02-01T17:42:18.617Z,6.67
2023-02-01T17:44:46.599Z,6.59
2023-02-01T17:47:13.963Z,6.53
2023-02-01T17:49:41.388Z,6.43
2023-02-01T17:52:17.076Z,6.44
2023-02-01T17:54:46.383Z,6.38
2023-02-01T17:57:14.077Z,6.38
2023-02-01T17:59:41.531Z,6.41
2023-02-01T18:02:35.534Z,6.36
2023-02-01T18:05:03.019Z,6.40
2023-02-01T18:07:30.478Z,6.35
2023-02-01T18:09:58.002Z,6.37
2023-02-01T18:12:26.527Z,6.40
2023-02-01T18:14:54.180Z,6.36
2023-02-01T18:17:21.649Z,6.21
2023-02-01T18:19:49.264Z,6.21
2023-02-01T18:22:19.970Z,6.09
2023-02-01T18:24:47.616Z,6.07
2023-02-01T18:27:15.143Z,6.08
2023-02-01T18:29:42.551Z,6.08
2023-02-01T18:32:11.037Z,6.09
2023-02-01T18:34:38.490Z,6.06
2023-02-01T18:37:05.927Z,5.97
2023-02-01T18:39:33.655Z,5.85
2023-02-01T18:42:01.042Z,5.75
2023-02-01T18:44:28.409Z,5.78
2023-02-01T18:46:55.778Z,5.84
2023-02-01T18:49:23.343Z,5.70
2023-02-01T18:51:52.209Z,5.61
2023-02-01T18:54:19.970Z,5.59
2023-02-01T18:56:47.653Z,5.59
2023-02-01T18:59:17.457Z,5.60
2023-02-01T19:01:45.192Z,5.51
2023-02-01T19:04:19.802Z,5.44
2023-02-01T19:06:53.583Z,5.40
2023-02-01T19:09:21.194Z,5.35
2023-02-01T19:11:48.648Z,5.23
2023-02-01T19:14:16.058Z,5.09
2023-02-01T19:16:44.499Z,5.12
2023-02-01T19:19:12.055Z,5.38
2023-02-01T19:21:39.481Z,5.66
2023-02-01T19:24:07.389Z,5.41
2023-02-01T19:26:35.035Z,5.23
2023-02-01T19:29:02.724Z,5.16
2023-02-01T19:31:30.478Z,5.10
2023-02-01T19:33:58.011Z,5.13
2023-02-01T19:36:26.862Z,5.13
2023-02-01T19:38:54.449Z,4.93
2023-02-01T19:41:21.891Z,4.86
2023-02-01T19:43:49.537Z,4.76
2023-02-01T19:46:17.051Z,4.80
2023-02-01T19:48:44.487Z,4.68
2023-02-01T19:51:12.827Z,4.68
2023-02-01T19:53:40.313Z,4.65
2023-02-01T19:56:08.089Z,4.65
2023-02-01T19:58:35.570Z,4.63
2023-02-01T20:01:02.829Z,4.62
2023-02-01T20:03:30.264Z,4.58
2023-02-01T20:05:58.966Z,4.64
2023-02-01T20:08:26.809Z,4.64
2023-02-01T20:10:54.348Z,4.72
2023-02-01T20:13:21.768Z,4.65
2023-02-01T20:15:55.487Z,4.65
2023-02-01T20:18:22.998Z,4.64
2023-02-01T20:20:54.309Z,4.63
2023-02-01T20:23:21.772Z,4.57
2023-02-01T20:25:50.212Z,4.46
2023-02-01T20:28:17.753Z,4.40
2023-02-01T20:30:46.133Z,4.45
2023-02-01T20:33:13.698Z,4.32
2023-02-01T20:35:45.291Z,4.27
2023-02-01T20:38:12.781Z,4.29
2023-02-01T20:40:40.447Z,4.27
2023-02-01T20:43:09.017Z,4.28
2023-02-01T20:45:43.511Z,4.28
2023-02-01T20:48:12.055Z,4.32
2023-02-01T20:50:39.763Z,4.26
2023-02-01T20:53:07.220Z,4.29
2023-02-01T20:55:34.683Z,4.39
2023-02-01T20:58:02.038Z,4.30
2023-02-01T21:00:31.165Z,4.14
2023-02-01T21:02:58.657Z,4.10
2023-02-01T21:05:39.844Z,4.09
2023-02-01T21:08:09.127Z,4.07
2023-02-01T21:10:36.747Z,4.07
2023-02-01T21:13:05.533Z,4.00
2023-02-01T21:15:36.238Z,4.01
2023-02-01T21:18:05.895Z,3.93
2023-02-01T21:20:33.228Z,3.89
2023-02-01T21:23:00.537Z,3.86
2023-02-01T21:25:28.043Z,3.78
2023-02-01T21:27:55.353Z,3.72
2023-02-01T21:30:22.761Z,3.58
2023-02-01T21:32:50.268Z,3.51
2023-02-01T21:35:17.681Z,3.49
2023-02-01T21:37:44.966Z,3.51
2023-02-01T21:40:12.861Z,3.50
2023-02-01T21:42:42.725Z,3.61
2023-02-01T21:45:10.470Z,3.57
2023-02-01T21:47:38.636Z,3.52
2023-02-01T21:50:18.047Z,3.52
2023-02-01T21:52:46.364Z,3.43
2023-02-01T21:55:14.282Z,3.36
2023-02-01T21:57:42.441Z,3.43
2023-02-01T22:00:10.316Z,3.38
2023-02-01T22:02:37.718Z,3.38
2023-02-01T22:05:06.649Z,3.48
2023-02-01T22:07:36.030Z,3.47
2023-02-01T22:10:04.252Z,3.49
2023-02-01T22:12:31.578Z,3.44
2023-02-01T22:14:58.892Z,3.50
2023-02-01T22:17:27.349Z,3.44
2023-02-01T22:19:54.631Z,3.29
2023-02-01T22:22:21.983Z,3.21
2023-02-01T22:24:49.309Z,3.19
2023-02-01T22:27:16.808Z,3.09
2023-02-01T22:29:44.113Z,3.01
2023-02-01T22:32:13.288Z,2.99
2023-02-01T22:34:41.510Z,3.00
2023-02-01T22:37:10.571Z,3.01
2023-02-01T22:39:38.397Z,3.01
2023-02-01T22:42:06.807Z,2.99
2023-02-01T22:44:34.076Z,2.88
2023-02-01T22:47:01.427Z,2.89
2023-02-01T22:49:28.933Z,2.95
2023-02-01T22:51:56.602Z,3.14
2023-02-01T22:54:23.919Z,3.06
2023-02-01T22:56:51.376Z,2.96
2023-02-01T22:59:18.715Z,2.89
2023-02-01T23:01:46.106Z,2.76
2023-02-01T23:04:15.019Z,2.77
2023-02-01T23:06:42.713Z,2.76
2023-02-01T23:09:21.910Z,2.74
2023-02-01T23:11:49.738Z,2.73
2023-02-01T23:14:17.758Z,2.77
2023-02-01T23:16:46.214Z,2.64
2023-02-01T23:19:14.140Z,2.74
2023-02-01T23:21:41.932Z,2.73
2023-02-01T23:24:10.794Z,2.77
2023-02-01T23:26:38.572Z,2.80
2023-02-01T23:29:06.174Z,2.75
2023-02-01T23:31:35.121Z,2.82
2023-02-01T23:34:03.552Z,2.78
2023-02-01T23:36:32.962Z,2.71
2023-02-01T23:39:01.018Z,2.74
2023-02-01T23:41:30.062Z,2.80
2023-02-01T23:43:57.633Z,2.80
2023-02-01T23:46:30.112Z,2.70
2023-02-01T23:48:57.936Z,2.72
2023-02-01T23:51:26.154Z,2.69
2023-02-01T23:53:54.419Z,2.67
2023-02-01T23:56:33.635Z,2.68
2023-02-01T23:59:06.528Z,2.69
